Las Vegas, Nevada
Traffic Map
Current Weather Conditions
Las Vegas, Nevada
Broken Clouds
Broken Clouds
68°
Feels Like: 68°
Wind Chill: 68° Ceiling: 24000
Heat Index: 68° Visibility: 10mi
Dew Point: 38° Wind: 3mph
Humidity: 33% Direction: 200° (SSW)
Pressure: 29.75in Gusts: 0mph
Raw Report DataKLAS 221156Z 20003KT 10SM FEW120 FEW180 BKN240 20/03 A2975 RMK AO2 SLP052 T02000033 10250 20200 52005
Traffic Incident Summary
Active as of:
Severity:
Category:
InformationThere was an issue retrieving the traffic information for this location. Please try a different location or try again shortly.
Advertisements